sensor_id;sensor_type;location;lat;lon;timestamp;P1;durP1;ratioP1;P2;durP2;ratioP2
17177;SDS011;8704;52.006;4.374;2023-05-29T00:01:05;16.60;;;4.57;;
17177;SDS011;8704;52.006;4.374;2023-05-29T00:03:34;19.77;;;4.50;;
17177;SDS011;8704;52.006;4.374;2023-05-29T00:06:02;14.88;;;4.43;;
17177;SDS011;8704;52.006;4.374;2023-05-29T00:08:32;15.27;;;4.57;;
17177;SDS011;8704;52.006;4.374;2023-05-29T00:11:00;20.80;;;4.32;;
17177;SDS011;8704;52.006;4.374;2023-05-29T00:13:29;16.23;;;4.55;;
17177;SDS011;8704;52.006;4.374;2023-05-29T00:15:57;16.02;;;4.78;;
17177;SDS011;8704;52.006;4.374;2023-05-29T00:18:27;15.07;;;4.80;;
17177;SDS011;8704;52.006;4.374;2023-05-29T00:20:54;17.35;;;4.55;;
17177;SDS011;8704;52.006;4.374;2023-05-29T00:23:22;15.18;;;4.20;;
17177;SDS011;8704;52.006;4.374;2023-05-29T00:25:50;13.60;;;4.30;;
17177;SDS011;8704;52.006;4.374;2023-05-29T00:28:19;18.77;;;4.60;;
17177;SDS011;8704;52.006;4.374;2023-05-29T00:30:49;18.08;;;4.80;;
17177;SDS011;8704;52.006;4.374;2023-05-29T00:33:17;16.55;;;4.18;;
17177;SDS011;8704;52.006;4.374;2023-05-29T00:35:45;16.42;;;4.40;;
17177;SDS011;8704;52.006;4.374;2023-05-29T00:38:13;14.57;;;3.92;;
17177;SDS011;8704;52.006;4.374;2023-05-29T00:40:41;18.15;;;4.65;;
17177;SDS011;8704;52.006;4.374;2023-05-29T00:43:09;18.58;;;4.43;;
17177;SDS011;8704;52.006;4.374;2023-05-29T00:45:37;16.52;;;4.30;;
17177;SDS011;8704;52.006;4.374;2023-05-29T00:48:06;18.88;;;3.88;;
17177;SDS011;8704;52.006;4.374;2023-05-29T00:50:35;16.10;;;4.45;;
17177;SDS011;8704;52.006;4.374;2023-05-29T00:53:04;16.20;;;4.45;;
17177;SDS011;8704;52.006;4.374;2023-05-29T00:55:33;18.35;;;4.40;;
17177;SDS011;8704;52.006;4.374;2023-05-29T00:58:02;16.02;;;4.30;;
17177;SDS011;8704;52.006;4.374;2023-05-29T01:00:30;17.83;;;4.30;;
17177;SDS011;8704;52.006;4.374;2023-05-29T01:02:59;15.25;;;4.30;;
17177;SDS011;8704;52.006;4.374;2023-05-29T01:05:32;13.95;;;4.28;;
17177;SDS011;8704;52.006;4.374;2023-05-29T01:08:01;20.92;;;4.78;;
17177;SDS011;8704;52.006;4.374;2023-05-29T01:10:29;11.95;;;4.70;;
17177;SDS011;8704;52.006;4.374;2023-05-29T01:12:59;17.70;;;4.25;;
17177;SDS011;8704;52.006;4.374;2023-05-29T01:15:33;17.85;;;4.53;;
17177;SDS011;8704;52.006;4.374;2023-05-29T01:18:12;15.35;;;4.32;;
17177;SDS011;8704;52.006;4.374;2023-05-29T01:20:52;16.75;;;4.50;;
17177;SDS011;8704;52.006;4.374;2023-05-29T01:23:45;17.65;;;4.20;;
17177;SDS011;8704;52.006;4.374;2023-05-29T01:26:21;15.20;;;3.90;;
17177;SDS011;8704;52.006;4.374;2023-05-29T01:29:16;16.02;;;4.55;;
17177;SDS011;8704;52.006;4.374;2023-05-29T01:31:46;18.00;;;4.85;;
17177;SDS011;8704;52.006;4.374;2023-05-29T01:34:15;13.82;;;4.25;;
17177;SDS011;8704;52.006;4.374;2023-05-29T01:36:43;16.85;;;4.25;;
17177;SDS011;8704;52.006;4.374;2023-05-29T01:39:12;14.18;;;4.00;;
17177;SDS011;8704;52.006;4.374;2023-05-29T01:41:41;17.73;;;4.32;;
17177;SDS011;8704;52.006;4.374;2023-05-29T01:44:10;15.13;;;3.80;;
17177;SDS011;8704;52.006;4.374;2023-05-29T01:46:42;17.27;;;4.40;;
17177;SDS011;8704;52.006;4.374;2023-05-29T01:49:11;15.20;;;3.88;;
17177;SDS011;8704;52.006;4.374;2023-05-29T01:51:40;14.32;;;3.95;;
17177;SDS011;8704;52.006;4.374;2023-05-29T01:54:08;13.25;;;3.80;;
17177;SDS011;8704;52.006;4.374;2023-05-29T01:56:38;11.93;;;3.35;;
17177;SDS011;8704;52.006;4.374;2023-05-29T01:59:06;16.92;;;4.30;;
17177;SDS011;8704;52.006;4.374;2023-05-29T02:01:35;16.10;;;3.75;;
17177;SDS011;8704;52.006;4.374;2023-05-29T02:04:07;16.70;;;3.92;;
17177;SDS011;8704;52.006;4.374;2023-05-29T02:06:35;16.95;;;3.63;;
17177;SDS011;8704;52.006;4.374;2023-05-29T02:09:04;18.60;;;4.18;;
17177;SDS011;8704;52.006;4.374;2023-05-29T02:11:33;12.05;;;3.67;;
17177;SDS011;8704;52.006;4.374;2023-05-29T02:14:00;13.50;;;3.58;;
17177;SDS011;8704;52.006;4.374;2023-05-29T02:16:30;18.08;;;4.03;;
17177;SDS011;8704;52.006;4.374;2023-05-29T02:19:00;14.40;;;3.92;;
17177;SDS011;8704;52.006;4.374;2023-05-29T02:21:30;16.17;;;3.55;;
17177;SDS011;8704;52.006;4.374;2023-05-29T02:23:58;15.15;;;3.95;;
17177;SDS011;8704;52.006;4.374;2023-05-29T02:26:26;14.57;;;3.55;;
17177;SDS011;8704;52.006;4.374;2023-05-29T02:28:54;21.10;;;4.43;;
17177;SDS011;8704;52.006;4.374;2023-05-29T02:31:22;14.75;;;3.90;;
17177;SDS011;8704;52.006;4.374;2023-05-29T02:33:50;17.17;;;3.97;;
17177;SDS011;8704;52.006;4.374;2023-05-29T02:36:18;11.95;;;3.22;;
17177;SDS011;8704;52.006;4.374;2023-05-29T02:38:48;13.60;;;3.42;;
17177;SDS011;8704;52.006;4.374;2023-05-29T02:41:16;15.57;;;3.88;;
17177;SDS011;8704;52.006;4.374;2023-05-29T02:43:44;13.35;;;3.67;;
17177;SDS011;8704;52.006;4.374;2023-05-29T02:46:11;12.40;;;3.92;;
17177;SDS011;8704;52.006;4.374;2023-05-29T02:48:39;15.45;;;4.47;;
17177;SDS011;8704;52.006;4.374;2023-05-29T02:51:07;14.77;;;3.72;;
17177;SDS011;8704;52.006;4.374;2023-05-29T02:53:35;16.45;;;4.20;;
17177;SDS011;8704;52.006;4.374;2023-05-29T02:56:05;14.30;;;3.85;;
17177;SDS011;8704;52.006;4.374;2023-05-29T02:58:34;17.08;;;3.92;;
17177;SDS011;8704;52.006;4.374;2023-05-29T03:01:02;18.58;;;3.75;;
17177;SDS011;8704;52.006;4.374;2023-05-29T03:03:31;13.45;;;3.97;;
17177;SDS011;8704;52.006;4.374;2023-05-29T03:05:59;20.48;;;4.20;;
17177;SDS011;8704;52.006;4.374;2023-05-29T03:08:28;14.60;;;3.80;;
17177;SDS011;8704;52.006;4.374;2023-05-29T03:10:56;15.32;;;3.80;;
17177;SDS011;8704;52.006;4.374;2023-05-29T03:13:26;14.95;;;4.07;;
17177;SDS011;8704;52.006;4.374;2023-05-29T03:15:54;13.85;;;4.07;;
17177;SDS011;8704;52.006;4.374;2023-05-29T03:18:23;12.02;;;3.50;;
17177;SDS011;8704;52.006;4.374;2023-05-29T03:20:51;11.20;;;3.58;;
17177;SDS011;8704;52.006;4.374;2023-05-29T03:23:20;11.65;;;3.80;;
17177;SDS011;8704;52.006;4.374;2023-05-29T03:25:52;15.73;;;3.70;;
17177;SDS011;8704;52.006;4.374;2023-05-29T03:28:21;18.42;;;4.05;;
17177;SDS011;8704;52.006;4.374;2023-05-29T03:30:50;13.52;;;3.08;;
17177;SDS011;8704;52.006;4.374;2023-05-29T03:33:19;15.52;;;4.18;;
17177;SDS011;8704;52.006;4.374;2023-05-29T03:35:47;12.57;;;3.45;;
17177;SDS011;8704;52.006;4.374;2023-05-29T03:38:15;16.33;;;3.75;;
17177;SDS011;8704;52.006;4.374;2023-05-29T03:40:43;13.30;;;3.40;;
17177;SDS011;8704;52.006;4.374;2023-05-29T03:43:11;10.45;;;3.35;;
17177;SDS011;8704;52.006;4.374;2023-05-29T03:45:38;15.82;;;3.15;;
17177;SDS011;8704;52.006;4.374;2023-05-29T03:48:08;15.77;;;3.22;;
17177;SDS011;8704;52.006;4.374;2023-05-29T03:50:36;17.08;;;4.03;;
17177;SDS011;8704;52.006;4.374;2023-05-29T03:53:04;18.88;;;4.07;;
17177;SDS011;8704;52.006;4.374;2023-05-29T03:55:32;14.95;;;3.50;;
17177;SDS011;8704;52.006;4.374;2023-05-29T03:58:00;16.08;;;3.53;;
17177;SDS011;8704;52.006;4.374;2023-05-29T04:00:28;15.75;;;3.83;;
17177;SDS011;8704;52.006;4.374;2023-05-29T04:02:56;14.70;;;3.45;;
17177;SDS011;8704;52.006;4.374;2023-05-29T04:05:25;15.38;;;3.85;;
17177;SDS011;8704;52.006;4.374;2023-05-29T04:07:53;11.50;;;3.80;;
17177;SDS011;8704;52.006;4.374;2023-05-29T04:10:40;13.20;;;3.33;;
17177;SDS011;8704;52.006;4.374;2023-05-29T04:13:09;17.00;;;3.78;;
17177;SDS011;8704;52.006;4.374;2023-05-29T04:15:37;17.48;;;4.10;;
17177;SDS011;8704;52.006;4.374;2023-05-29T04:18:06;16.40;;;3.70;;
17177;SDS011;8704;52.006;4.374;2023-05-29T04:20:35;15.93;;;3.30;;
17177;SDS011;8704;52.006;4.374;2023-05-29T04:23:03;13.30;;;3.13;;
17177;SDS011;8704;52.006;4.374;2023-05-29T04:25:31;17.67;;;4.22;;
17177;SDS011;8704;52.006;4.374;2023-05-29T04:28:00;16.02;;;3.92;;
17177;SDS011;8704;52.006;4.374;2023-05-29T04:30:29;14.40;;;3.95;;
17177;SDS011;8704;52.006;4.374;2023-05-29T04:33:00;15.50;;;4.00;;
17177;SDS011;8704;52.006;4.374;2023-05-29T04:35:28;14.45;;;4.03;;
17177;SDS011;8704;52.006;4.374;2023-05-29T04:37:57;14.93;;;3.88;;
17177;SDS011;8704;52.006;4.374;2023-05-29T04:40:25;17.50;;;3.92;;
17177;SDS011;8704;52.006;4.374;2023-05-29T04:42:53;14.95;;;3.75;;
17177;SDS011;8704;52.006;4.374;2023-05-29T04:45:21;15.93;;;3.50;;
17177;SDS011;8704;52.006;4.374;2023-05-29T04:47:49;15.75;;;4.15;;
17177;SDS011;8704;52.006;4.374;2023-05-29T04:50:19;14.38;;;3.88;;
17177;SDS011;8704;52.006;4.374;2023-05-29T04:52:49;20.23;;;3.90;;
17177;SDS011;8704;52.006;4.374;2023-05-29T04:55:18;14.15;;;3.60;;
17177;SDS011;8704;52.006;4.374;2023-05-29T04:57:47;23.83;;;4.00;;
17177;SDS011;8704;52.006;4.374;2023-05-29T05:00:15;15.32;;;3.78;;
17177;SDS011;8704;52.006;4.374;2023-05-29T05:02:44;13.88;;;3.65;;
17177;SDS011;8704;52.006;4.374;2023-05-29T05:05:13;16.48;;;3.42;;
17177;SDS011;8704;52.006;4.374;2023-05-29T05:07:41;12.32;;;4.00;;
17177;SDS011;8704;52.006;4.374;2023-05-29T05:10:09;15.32;;;3.70;;
17177;SDS011;8704;52.006;4.374;2023-05-29T05:12:39;13.02;;;3.67;;
17177;SDS011;8704;52.006;4.374;2023-05-29T05:15:07;18.05;;;3.63;;
17177;SDS011;8704;52.006;4.374;2023-05-29T05:17:36;13.30;;;4.13;;
17177;SDS011;8704;52.006;4.374;2023-05-29T05:20:05;17.05;;;3.97;;
17177;SDS011;8704;52.006;4.374;2023-05-29T05:22:35;12.45;;;3.80;;
17177;SDS011;8704;52.006;4.374;2023-05-29T05:25:03;17.25;;;3.75;;
17177;SDS011;8704;52.006;4.374;2023-05-29T05:27:32;21.13;;;4.05;;
17177;SDS011;8704;52.006;4.374;2023-05-29T05:30:02;16.73;;;4.20;;
17177;SDS011;8704;52.006;4.374;2023-05-29T05:32:30;12.75;;;3.80;;
17177;SDS011;8704;52.006;4.374;2023-05-29T05:34:58;13.20;;;3.55;;
17177;SDS011;8704;52.006;4.374;2023-05-29T05:37:26;16.35;;;3.75;;
17177;SDS011;8704;52.006;4.374;2023-05-29T05:39:54;11.73;;;3.50;;
17177;SDS011;8704;52.006;4.374;2023-05-29T05:42:24;17.05;;;3.90;;
17177;SDS011;8704;52.006;4.374;2023-05-29T05:44:52;18.30;;;3.90;;
17177;SDS011;8704;52.006;4.374;2023-05-29T05:47:21;17.00;;;3.90;;
17177;SDS011;8704;52.006;4.374;2023-05-29T05:49:49;15.27;;;3.95;;
17177;SDS011;8704;52.006;4.374;2023-05-29T05:52:18;15.07;;;3.78;;
17177;SDS011;8704;52.006;4.374;2023-05-29T05:54:46;18.40;;;3.80;;
17177;SDS011;8704;52.006;4.374;2023-05-29T05:57:14;13.00;;;3.72;;
17177;SDS011;8704;52.006;4.374;2023-05-29T05:59:42;13.52;;;3.53;;
17177;SDS011;8704;52.006;4.374;2023-05-29T06:02:10;11.82;;;3.40;;
17177;SDS011;8704;52.006;4.374;2023-05-29T06:04:39;16.50;;;3.92;;
17177;SDS011;8704;52.006;4.374;2023-05-29T06:07:08;14.70;;;3.55;;
17177;SDS011;8704;52.006;4.374;2023-05-29T06:09:36;17.25;;;4.32;;
17177;SDS011;8704;52.006;4.374;2023-05-29T06:12:05;18.52;;;3.97;;
17177;SDS011;8704;52.006;4.374;2023-05-29T06:14:34;15.05;;;3.35;;
17177;SDS011;8704;52.006;4.374;2023-05-29T06:17:02;13.60;;;3.78;;
17177;SDS011;8704;52.006;4.374;2023-05-29T06:19:31;18.40;;;4.07;;
17177;SDS011;8704;52.006;4.374;2023-05-29T06:22:00;18.10;;;4.63;;
17177;SDS011;8704;52.006;4.374;2023-05-29T06:24:28;17.88;;;3.83;;
17177;SDS011;8704;52.006;4.374;2023-05-29T06:26:56;15.95;;;4.15;;
17177;SDS011;8704;52.006;4.374;2023-05-29T06:29:24;17.10;;;4.05;;
17177;SDS011;8704;52.006;4.374;2023-05-29T06:31:52;15.68;;;4.00;;
17177;SDS011;8704;52.006;4.374;2023-05-29T06:34:20;15.73;;;3.95;;
17177;SDS011;8704;52.006;4.374;2023-05-29T06:36:48;18.95;;;4.28;;
17177;SDS011;8704;52.006;4.374;2023-05-29T06:39:18;16.67;;;4.10;;
17177;SDS011;8704;52.006;4.374;2023-05-29T06:41:46;18.70;;;4.32;;
17177;SDS011;8704;52.006;4.374;2023-05-29T06:44:14;13.65;;;3.85;;
17177;SDS011;8704;52.006;4.374;2023-05-29T06:46:42;12.48;;;3.78;;
17177;SDS011;8704;52.006;4.374;2023-05-29T06:49:10;16.42;;;4.15;;
17177;SDS011;8704;52.006;4.374;2023-05-29T06:51:38;11.20;;;3.45;;
17177;SDS011;8704;52.006;4.374;2023-05-29T06:54:06;13.40;;;3.63;;
17177;SDS011;8704;52.006;4.374;2023-05-29T06:56:35;19.15;;;4.35;;
17177;SDS011;8704;52.006;4.374;2023-05-29T06:59:03;16.35;;;3.70;;
17177;SDS011;8704;52.006;4.374;2023-05-29T07:01:31;12.60;;;3.75;;
17177;SDS011;8704;52.006;4.374;2023-05-29T07:03:59;16.75;;;4.07;;
17177;SDS011;8704;52.006;4.374;2023-05-29T07:06:27;16.42;;;4.03;;
17177;SDS011;8704;52.006;4.374;2023-05-29T07:08:55;12.95;;;3.63;;
17177;SDS011;8704;52.006;4.374;2023-05-29T07:11:23;11.20;;;3.47;;
17177;SDS011;8704;52.006;4.374;2023-05-29T07:13:54;13.65;;;3.58;;
17177;SDS011;8704;52.006;4.374;2023-05-29T07:16:22;14.65;;;3.60;;
17177;SDS011;8704;52.006;4.374;2023-05-29T07:18:50;16.33;;;3.80;;
17177;SDS011;8704;52.006;4.374;2023-05-29T07:21:18;14.00;;;3.35;;
17177;SDS011;8704;52.006;4.374;2023-05-29T07:23:47;13.20;;;3.60;;
17177;SDS011;8704;52.006;4.374;2023-05-29T07:26:15;11.15;;;3.17;;
17177;SDS011;8704;52.006;4.374;2023-05-29T07:28:43;13.73;;;3.78;;
17177;SDS011;8704;52.006;4.374;2023-05-29T07:31:13;11.40;;;3.25;;
17177;SDS011;8704;52.006;4.374;2023-05-29T07:33:42;11.90;;;3.40;;
17177;SDS011;8704;52.006;4.374;2023-05-29T07:36:10;13.18;;;3.63;;
17177;SDS011;8704;52.006;4.374;2023-05-29T07:38:38;16.05;;;3.05;;
17177;SDS011;8704;52.006;4.374;2023-05-29T07:41:06;13.07;;;3.22;;
17177;SDS011;8704;52.006;4.374;2023-05-29T07:43:34;10.20;;;3.33;;
17177;SDS011;8704;52.006;4.374;2023-05-29T07:46:03;10.02;;;3.28;;
17177;SDS011;8704;52.006;4.374;2023-05-29T07:48:32;11.85;;;3.20;;
17177;SDS011;8704;52.006;4.374;2023-05-29T07:51:00;14.18;;;3.53;;
17177;SDS011;8704;52.006;4.374;2023-05-29T07:53:28;9.50;;;3.42;;
17177;SDS011;8704;52.006;4.374;2023-05-29T07:55:56;11.68;;;3.17;;
17177;SDS011;8704;52.006;4.374;2023-05-29T07:58:24;13.75;;;3.08;;
17177;SDS011;8704;52.006;4.374;2023-05-29T08:00:53;14.88;;;3.63;;
17177;SDS011;8704;52.006;4.374;2023-05-29T08:03:21;12.32;;;3.20;;
17177;SDS011;8704;52.006;4.374;2023-05-29T08:05:51;11.93;;;3.47;;
17177;SDS011;8704;52.006;4.374;2023-05-29T08:08:19;16.33;;;3.75;;
17177;SDS011;8704;52.006;4.374;2023-05-29T08:10:47;15.10;;;3.45;;
17177;SDS011;8704;52.006;4.374;2023-05-29T08:13:15;11.15;;;3.28;;
17177;SDS011;8704;52.006;4.374;2023-05-29T08:15:43;8.63;;;2.80;;
17177;SDS011;8704;52.006;4.374;2023-05-29T08:18:11;17.38;;;3.75;;
17177;SDS011;8704;52.006;4.374;2023-05-29T08:20:39;10.63;;;3.50;;
17177;SDS011;8704;52.006;4.374;2023-05-29T08:23:10;12.43;;;3.05;;
17177;SDS011;8704;52.006;4.374;2023-05-29T08:25:38;12.30;;;3.50;;
17177;SDS011;8704;52.006;4.374;2023-05-29T08:28:06;12.68;;;3.42;;
17177;SDS011;8704;52.006;4.374;2023-05-29T08:30:34;12.15;;;3.47;;
17177;SDS011;8704;52.006;4.374;2023-05-29T08:33:03;8.50;;;3.20;;
17177;SDS011;8704;52.006;4.374;2023-05-29T08:35:31;12.15;;;3.45;;
17177;SDS011;8704;52.006;4.374;2023-05-29T08:37:59;8.77;;;3.28;;
17177;SDS011;8704;52.006;4.374;2023-05-29T08:40:28;11.23;;;2.95;;
17177;SDS011;8704;52.006;4.374;2023-05-29T08:42:57;8.70;;;2.75;;
17177;SDS011;8704;52.006;4.374;2023-05-29T08:45:28;9.68;;;3.38;;
17177;SDS011;8704;52.006;4.374;2023-05-29T08:47:56;9.80;;;3.40;;
17177;SDS011;8704;52.006;4.374;2023-05-29T08:50:27;10.10;;;2.95;;
17177;SDS011;8704;52.006;4.374;2023-05-29T08:52:55;12.68;;;3.42;;
17177;SDS011;8704;52.006;4.374;2023-05-29T08:55:24;10.10;;;3.10;;
17177;SDS011;8704;52.006;4.374;2023-05-29T08:57:53;10.57;;;3.08;;
17177;SDS011;8704;52.006;4.374;2023-05-29T09:00:22;11.77;;;3.10;;
17177;SDS011;8704;52.006;4.374;2023-05-29T09:02:54;10.60;;;3.42;;
17177;SDS011;8704;52.006;4.374;2023-05-29T09:05:22;11.35;;;3.13;;
17177;SDS011;8704;52.006;4.374;2023-05-29T09:07:55;12.00;;;2.95;;
17177;SDS011;8704;52.006;4.374;2023-05-29T09:10:23;14.48;;;2.97;;
17177;SDS011;8704;52.006;4.374;2023-05-29T09:12:51;11.95;;;3.53;;
17177;SDS011;8704;52.006;4.374;2023-05-29T09:15:22;12.13;;;3.22;;
17177;SDS011;8704;52.006;4.374;2023-05-29T09:17:51;14.27;;;3.70;;
17177;SDS011;8704;52.006;4.374;2023-05-29T09:20:20;12.13;;;3.60;;
17177;SDS011;8704;52.006;4.374;2023-05-29T09:22:54;12.73;;;2.92;;
17177;SDS011;8704;52.006;4.374;2023-05-29T09:25:22;12.02;;;3.25;;
17177;SDS011;8704;52.006;4.374;2023-05-29T09:27:56;10.88;;;3.58;;
17177;SDS011;8704;52.006;4.374;2023-05-29T09:30:36;12.95;;;3.67;;
17177;SDS011;8704;52.006;4.374;2023-05-29T09:33:06;10.50;;;3.10;;
17177;SDS011;8704;52.006;4.374;2023-05-29T09:35:35;16.25;;;3.10;;
17177;SDS011;8704;52.006;4.374;2023-05-29T09:38:06;11.00;;;3.17;;
17177;SDS011;8704;52.006;4.374;2023-05-29T09:40:36;11.13;;;3.42;;
17177;SDS011;8704;52.006;4.374;2023-05-29T09:43:09;13.35;;;2.95;;
17177;SDS011;8704;52.006;4.374;2023-05-29T09:45:38;13.63;;;3.03;;
17177;SDS011;8704;52.006;4.374;2023-05-29T09:48:07;14.68;;;3.42;;
17177;SDS011;8704;52.006;4.374;2023-05-29T09:50:35;13.95;;;3.20;;
17177;SDS011;8704;52.006;4.374;2023-05-29T09:53:03;8.85;;;3.00;;
17177;SDS011;8704;52.006;4.374;2023-05-29T09:55:45;10.75;;;2.80;;
17177;SDS011;8704;52.006;4.374;2023-05-29T09:58:16;15.15;;;3.42;;
17177;SDS011;8704;52.006;4.374;2023-05-29T10:00:45;12.00;;;2.83;;
17177;SDS011;8704;52.006;4.374;2023-05-29T10:03:13;13.65;;;3.40;;
17177;SDS011;8704;52.006;4.374;2023-05-29T10:05:43;8.88;;;2.83;;
17177;SDS011;8704;52.006;4.374;2023-05-29T10:08:15;10.75;;;3.17;;
17177;SDS011;8704;52.006;4.374;2023-05-29T10:10:45;12.60;;;3.30;;
17177;SDS011;8704;52.006;4.374;2023-05-29T10:13:16;11.77;;;3.10;;
17177;SDS011;8704;52.006;4.374;2023-05-29T10:15:45;10.38;;;2.90;;
17177;SDS011;8704;52.006;4.374;2023-05-29T10:18:20;10.77;;;2.88;;
17177;SDS011;8704;52.006;4.374;2023-05-29T10:20:51;10.75;;;3.20;;
17177;SDS011;8704;52.006;4.374;2023-05-29T10:23:24;11.43;;;3.22;;
17177;SDS011;8704;52.006;4.374;2023-05-29T10:25:57;8.68;;;2.78;;
17177;SDS011;8704;52.006;4.374;2023-05-29T10:28:44;10.75;;;3.10;;
17177;SDS011;8704;52.006;4.374;2023-05-29T10:31:16;10.25;;;3.05;;
17177;SDS011;8704;52.006;4.374;2023-05-29T10:33:52;9.77;;;3.03;;
17177;SDS011;8704;52.006;4.374;2023-05-29T10:36:30;12.30;;;3.15;;
17177;SDS011;8704;52.006;4.374;2023-05-29T10:39:04;8.98;;;3.03;;
17177;SDS011;8704;52.006;4.374;2023-05-29T10:41:34;8.70;;;2.90;;
17177;SDS011;8704;52.006;4.374;2023-05-29T10:47:08;10.98;;;2.80;;
17177;SDS011;8704;52.006;4.374;2023-05-29T10:49:39;12.05;;;3.53;;
17177;SDS011;8704;52.006;4.374;2023-05-29T10:52:15;9.52;;;2.90;;
17177;SDS011;8704;52.006;4.374;2023-05-29T10:54:51;10.32;;;3.05;;
17177;SDS011;8704;52.006;4.374;2023-05-29T10:57:21;10.57;;;3.20;;
17177;SDS011;8704;52.006;4.374;2023-05-29T10:59:58;14.23;;;3.42;;
17177;SDS011;8704;52.006;4.374;2023-05-29T11:02:29;11.20;;;3.42;;
17177;SDS011;8704;52.006;4.374;2023-05-29T11:05:04;15.18;;;3.25;;
17177;SDS011;8704;52.006;4.374;2023-05-29T11:07:33;10.23;;;3.33;;
17177;SDS011;8704;52.006;4.374;2023-05-29T11:10:11;11.25;;;3.45;;
17177;SDS011;8704;52.006;4.374;2023-05-29T11:12:56;10.55;;;3.15;;
17177;SDS011;8704;52.006;4.374;2023-05-29T11:15:27;9.38;;;3.03;;
17177;SDS011;8704;52.006;4.374;2023-05-29T11:17:55;9.77;;;3.10;;
17177;SDS011;8704;52.006;4.374;2023-05-29T11:20:35;11.57;;;3.13;;
17177;SDS011;8704;52.006;4.374;2023-05-29T11:23:04;9.10;;;3.40;;
17177;SDS011;8704;52.006;4.374;2023-05-29T11:25:36;9.02;;;3.45;;
17177;SDS011;8704;52.006;4.374;2023-05-29T11:28:04;11.57;;;3.58;;
17177;SDS011;8704;52.006;4.374;2023-05-29T11:30:41;7.68;;;2.90;;
17177;SDS011;8704;52.006;4.374;2023-05-29T11:33:15;10.73;;;3.60;;
17177;SDS011;8704;52.006;4.374;2023-05-29T11:35:50;10.07;;;3.13;;
17177;SDS011;8704;52.006;4.374;2023-05-29T11:38:24;9.20;;;3.83;;
17177;SDS011;8704;52.006;4.374;2023-05-29T11:40:53;13.15;;;3.90;;
17177;SDS011;8704;52.006;4.374;2023-05-29T11:43:22;11.00;;;3.33;;
17177;SDS011;8704;52.006;4.374;2023-05-29T11:45:51;8.48;;;3.45;;
17177;SDS011;8704;52.006;4.374;2023-05-29T11:48:20;11.48;;;3.97;;
17177;SDS011;8704;52.006;4.374;2023-05-29T11:50:50;12.40;;;3.20;;
17177;SDS011;8704;52.006;4.374;2023-05-29T11:53:19;10.75;;;3.75;;
17177;SDS011;8704;52.006;4.374;2023-05-29T11:55:47;11.27;;;3.88;;
17177;SDS011;8704;52.006;4.374;2023-05-29T11:58:15;12.05;;;4.15;;
17177;SDS011;8704;52.006;4.374;2023-05-29T12:00:43;9.40;;;3.50;;
17177;SDS011;8704;52.006;4.374;2023-05-29T12:03:15;11.70;;;3.67;;
17177;SDS011;8704;52.006;4.374;2023-05-29T12:05:44;13.65;;;3.78;;
17177;SDS011;8704;52.006;4.374;2023-05-29T12:08:13;11.32;;;4.15;;
17177;SDS011;8704;52.006;4.374;2023-05-29T12:10:46;10.93;;;3.63;;
17177;SDS011;8704;52.006;4.374;2023-05-29T12:13:14;13.02;;;3.58;;
17177;SDS011;8704;52.006;4.374;2023-05-29T12:15:44;13.43;;;4.28;;
17177;SDS011;8704;52.006;4.374;2023-05-29T12:18:16;9.52;;;3.97;;
17177;SDS011;8704;52.006;4.374;2023-05-29T12:20:44;10.38;;;3.60;;
17177;SDS011;8704;52.006;4.374;2023-05-29T12:23:13;13.23;;;4.65;;
17177;SDS011;8704;52.006;4.374;2023-05-29T12:25:41;13.45;;;4.35;;
17177;SDS011;8704;52.006;4.374;2023-05-29T12:28:15;13.97;;;3.97;;
17177;SDS011;8704;52.006;4.374;2023-05-29T12:30:46;9.02;;;3.55;;
17177;SDS011;8704;52.006;4.374;2023-05-29T12:33:27;14.07;;;4.00;;
17177;SDS011;8704;52.006;4.374;2023-05-29T12:36:03;13.93;;;4.63;;
17177;SDS011;8704;52.006;4.374;2023-05-29T12:38:33;11.45;;;3.97;;
17177;SDS011;8704;52.006;4.374;2023-05-29T12:41:21;11.98;;;3.72;;
17177;SDS011;8704;52.006;4.374;2023-05-29T12:43:53;12.20;;;3.58;;
17177;SDS011;8704;52.006;4.374;2023-05-29T12:46:23;9.60;;;3.95;;
17177;SDS011;8704;52.006;4.374;2023-05-29T12:48:54;15.90;;;4.18;;
17177;SDS011;8704;52.006;4.374;2023-05-29T12:51:22;12.65;;;4.18;;
17177;SDS011;8704;52.006;4.374;2023-05-29T12:53:51;10.38;;;4.30;;
17177;SDS011;8704;52.006;4.374;2023-05-29T12:56:21;14.00;;;3.95;;
17177;SDS011;8704;52.006;4.374;2023-05-29T12:58:50;12.25;;;4.13;;
17177;SDS011;8704;52.006;4.374;2023-05-29T13:01:18;12.45;;;4.20;;
17177;SDS011;8704;52.006;4.374;2023-05-29T13:03:48;14.27;;;3.88;;
17177;SDS011;8704;52.006;4.374;2023-05-29T13:06:18;11.73;;;3.95;;
17177;SDS011;8704;52.006;4.374;2023-05-29T13:08:46;12.57;;;4.47;;
17177;SDS011;8704;52.006;4.374;2023-05-29T13:11:14;11.48;;;3.55;;
17177;SDS011;8704;52.006;4.374;2023-05-29T13:13:42;12.70;;;4.03;;
17177;SDS011;8704;52.006;4.374;2023-05-29T13:16:10;13.05;;;4.00;;
17177;SDS011;8704;52.006;4.374;2023-05-29T13:18:38;12.15;;;4.25;;
17177;SDS011;8704;52.006;4.374;2023-05-29T13:21:06;11.43;;;3.72;;
17177;SDS011;8704;52.006;4.374;2023-05-29T13:23:35;11.05;;;3.65;;
17177;SDS011;8704;52.006;4.374;2023-05-29T13:26:03;12.63;;;3.97;;
17177;SDS011;8704;52.006;4.374;2023-05-29T13:28:32;14.63;;;4.60;;
17177;SDS011;8704;52.006;4.374;2023-05-29T13:31:01;14.05;;;3.78;;
17177;SDS011;8704;52.006;4.374;2023-05-29T13:33:29;11.68;;;3.78;;
17177;SDS011;8704;52.006;4.374;2023-05-29T13:35:57;11.25;;;3.78;;
17177;SDS011;8704;52.006;4.374;2023-05-29T13:38:25;8.57;;;3.63;;
17177;SDS011;8704;52.006;4.374;2023-05-29T13:40:55;11.15;;;4.03;;
17177;SDS011;8704;52.006;4.374;2023-05-29T13:43:23;17.50;;;4.05;;
17177;SDS011;8704;52.006;4.374;2023-05-29T13:46:08;13.13;;;3.88;;
17177;SDS011;8704;52.006;4.374;2023-05-29T13:48:36;11.15;;;3.55;;
17177;SDS011;8704;52.006;4.374;2023-05-29T13:51:04;11.55;;;3.65;;
17177;SDS011;8704;52.006;4.374;2023-05-29T13:53:32;14.27;;;4.00;;
17177;SDS011;8704;52.006;4.374;2023-05-29T13:56:01;12.45;;;4.32;;
17177;SDS011;8704;52.006;4.374;2023-05-29T13:58:29;10.63;;;3.13;;
17177;SDS011;8704;52.006;4.374;2023-05-29T14:00:57;10.02;;;3.58;;
17177;SDS011;8704;52.006;4.374;2023-05-29T14:03:25;10.13;;;3.50;;
17177;SDS011;8704;52.006;4.374;2023-05-29T14:05:55;9.82;;;3.70;;
17177;SDS011;8704;52.006;4.374;2023-05-29T14:08:24;12.23;;;3.35;;
17177;SDS011;8704;52.006;4.374;2023-05-29T14:10:52;9.43;;;3.85;;
17177;SDS011;8704;52.006;4.374;2023-05-29T14:13:21;13.25;;;3.67;;
17177;SDS011;8704;52.006;4.374;2023-05-29T14:15:49;10.25;;;3.60;;
17177;SDS011;8704;52.006;4.374;2023-05-29T14:18:17;11.80;;;3.60;;
17177;SDS011;8704;52.006;4.374;2023-05-29T14:20:46;8.73;;;3.30;;
17177;SDS011;8704;52.006;4.374;2023-05-29T14:23:16;10.68;;;3.42;;
17177;SDS011;8704;52.006;4.374;2023-05-29T14:25:44;10.35;;;3.40;;
17177;SDS011;8704;52.006;4.374;2023-05-29T14:28:12;9.02;;;3.35;;
17177;SDS011;8704;52.006;4.374;2023-05-29T14:30:42;7.53;;;2.97;;
17177;SDS011;8704;52.006;4.374;2023-05-29T14:33:10;10.35;;;3.60;;
17177;SDS011;8704;52.006;4.374;2023-05-29T14:35:38;10.15;;;3.70;;
17177;SDS011;8704;52.006;4.374;2023-05-29T14:38:06;12.02;;;4.10;;
17177;SDS011;8704;52.006;4.374;2023-05-29T14:40:34;13.43;;;4.70;;
17177;SDS011;8704;52.006;4.374;2023-05-29T14:43:03;12.70;;;3.92;;
17177;SDS011;8704;52.006;4.374;2023-05-29T14:45:31;10.00;;;3.70;;
17177;SDS011;8704;52.006;4.374;2023-05-29T14:48:01;11.50;;;3.70;;
17177;SDS011;8704;52.006;4.374;2023-05-29T14:50:31;8.98;;;3.47;;
17177;SDS011;8704;52.006;4.374;2023-05-29T14:53:02;11.23;;;4.23;;
17177;SDS011;8704;52.006;4.374;2023-05-29T14:55:31;11.35;;;4.65;;
17177;SDS011;8704;52.006;4.374;2023-05-29T14:58:03;10.75;;;3.83;;
17177;SDS011;8704;52.006;4.374;2023-05-29T15:00:32;13.00;;;4.38;;
17177;SDS011;8704;52.006;4.374;2023-05-29T15:03:01;9.07;;;4.15;;
17177;SDS011;8704;52.006;4.374;2023-05-29T15:05:29;13.18;;;3.70;;